sensor_id;sensor_type;location;lat;lon;timestamp;temperature;humidity
3136;DHT22;1578;47.658;9.922;2024-03-07T00:00:07;2.30;48.90
3136;DHT22;1578;47.658;9.922;2024-03-07T00:02:41;2.20;49.80
3136;DHT22;1578;47.658;9.922;2024-03-07T00:05:08;2.20;50.30
3136;DHT22;1578;47.658;9.922;2024-03-07T00:07:33;2.40;50.00
3136;DHT22;1578;47.658;9.922;2024-03-07T00:10:00;2.40;49.60
3136;DHT22;1578;47.658;9.922;2024-03-07T00:12:26;2.40;49.70
3136;DHT22;1578;47.658;9.922;2024-03-07T00:14:53;2.40;49.70
3136;DHT22;1578;47.658;9.922;2024-03-07T00:17:19;2.40;49.30
3136;DHT22;1578;47.658;9.922;2024-03-07T00:19:45;2.50;49.20
3136;DHT22;1578;47.658;9.922;2024-03-07T00:22:13;2.40;48.80
3136;DHT22;1578;47.658;9.922;2024-03-07T00:24:40;2.30;49.10
3136;DHT22;1578;47.658;9.922;2024-03-07T00:27:05;2.30;49.40
3136;DHT22;1578;47.658;9.922;2024-03-07T00:29:32;2.30;50.10
3136;DHT22;1578;47.658;9.922;2024-03-07T00:32:01;2.40;49.80
3136;DHT22;1578;47.658;9.922;2024-03-07T00:34:26;2.40;49.10
3136;DHT22;1578;47.658;9.922;2024-03-07T00:36:52;2.50;49.20
3136;DHT22;1578;47.658;9.922;2024-03-07T00:39:18;2.40;48.50
3136;DHT22;1578;47.658;9.922;2024-03-07T00:41:45;2.40;48.90
3136;DHT22;1578;47.658;9.922;2024-03-07T00:44:10;2.30;49.70
3136;DHT22;1578;47.658;9.922;2024-03-07T00:46:36;2.40;49.70
3136;DHT22;1578;47.658;9.922;2024-03-07T00:49:03;2.40;49.60
3136;DHT22;1578;47.658;9.922;2024-03-07T00:51:29;2.40;49.70
3136;DHT22;1578;47.658;9.922;2024-03-07T00:53:55;2.40;50.40
3136;DHT22;1578;47.658;9.922;2024-03-07T00:56:21;2.50;50.50
3136;DHT22;1578;47.658;9.922;2024-03-07T00:58:51;2.50;49.10
3136;DHT22;1578;47.658;9.922;2024-03-07T01:01:17;2.50;48.80
3136;DHT22;1578;47.658;9.922;2024-03-07T01:03:44;2.50;48.70
3136;DHT22;1578;47.658;9.922;2024-03-07T01:06:10;2.50;48.90
3136;DHT22;1578;47.658;9.922;2024-03-07T01:08:36;2.50;49.10
3136;DHT22;1578;47.658;9.922;2024-03-07T01:11:04;2.50;49.00
3136;DHT22;1578;47.658;9.922;2024-03-07T01:13:38;2.50;49.60
3136;DHT22;1578;47.658;9.922;2024-03-07T01:16:04;2.60;49.10
3136;DHT22;1578;47.658;9.922;2024-03-07T01:18:30;2.50;48.80
3136;DHT22;1578;47.658;9.922;2024-03-07T01:20:59;2.50;48.80
3136;DHT22;1578;47.658;9.922;2024-03-07T01:23:24;2.50;48.80
3136;DHT22;1578;47.658;9.922;2024-03-07T01:25:50;2.50;49.30
3136;DHT22;1578;47.658;9.922;2024-03-07T01:28:15;2.60;49.30
3136;DHT22;1578;47.658;9.922;2024-03-07T01:30:42;2.60;48.50
3136;DHT22;1578;47.658;9.922;2024-03-07T01:33:08;2.50;48.80
3136;DHT22;1578;47.658;9.922;2024-03-07T01:35:33;2.50;48.40
3136;DHT22;1578;47.658;9.922;2024-03-07T01:37:59;2.60;48.60
3136;DHT22;1578;47.658;9.922;2024-03-07T01:40:25;2.60;48.10
3136;DHT22;1578;47.658;9.922;2024-03-07T01:42:50;2.60;48.20
3136;DHT22;1578;47.658;9.922;2024-03-07T01:45:16;2.50;47.80
3136;DHT22;1578;47.658;9.922;2024-03-07T01:47:44;2.50;48.60
3136;DHT22;1578;47.658;9.922;2024-03-07T01:50:09;2.40;49.70
3136;DHT22;1578;47.658;9.922;2024-03-07T01:52:36;2.40;49.70
3136;DHT22;1578;47.658;9.922;2024-03-07T01:55:05;2.40;50.00
3136;DHT22;1578;47.658;9.922;2024-03-07T01:57:31;2.50;50.30
3136;DHT22;1578;47.658;9.922;2024-03-07T01:59:57;2.60;49.50
3136;DHT22;1578;47.658;9.922;2024-03-07T02:02:22;2.50;49.50
3136;DHT22;1578;47.658;9.922;2024-03-07T02:04:48;2.50;49.40
3136;DHT22;1578;47.658;9.922;2024-03-07T02:07:13;2.60;49.60
3136;DHT22;1578;47.658;9.922;2024-03-07T02:09:39;2.60;49.50
3136;DHT22;1578;47.658;9.922;2024-03-07T02:12:05;2.60;49.40
3136;DHT22;1578;47.658;9.922;2024-03-07T02:14:31;2.60;49.10
3136;DHT22;1578;47.658;9.922;2024-03-07T02:16:56;2.70;49.10
3136;DHT22;1578;47.658;9.922;2024-03-07T02:19:22;2.70;48.70
3136;DHT22;1578;47.658;9.922;2024-03-07T02:21:48;2.70;49.00
3136;DHT22;1578;47.658;9.922;2024-03-07T02:24:14;2.70;48.80
3136;DHT22;1578;47.658;9.922;2024-03-07T02:26:40;2.70;48.70
3136;DHT22;1578;47.658;9.922;2024-03-07T02:29:06;2.80;48.10
3136;DHT22;1578;47.658;9.922;2024-03-07T02:31:32;2.80;48.00
3136;DHT22;1578;47.658;9.922;2024-03-07T02:34:05;2.80;47.90
3136;DHT22;1578;47.658;9.922;2024-03-07T02:36:33;2.80;48.00
3136;DHT22;1578;47.658;9.922;2024-03-07T02:38:59;2.80;47.80
3136;DHT22;1578;47.658;9.922;2024-03-07T02:41:25;2.80;47.60
3136;DHT22;1578;47.658;9.922;2024-03-07T02:43:51;2.80;47.90
3136;DHT22;1578;47.658;9.922;2024-03-07T02:46:17;2.80;47.70
3136;DHT22;1578;47.658;9.922;2024-03-07T02:48:43;2.70;47.80
3136;DHT22;1578;47.658;9.922;2024-03-07T02:51:09;2.80;47.80
3136;DHT22;1578;47.658;9.922;2024-03-07T02:53:35;2.80;47.90
3136;DHT22;1578;47.658;9.922;2024-03-07T02:56:00;2.70;47.60
3136;DHT22;1578;47.658;9.922;2024-03-07T02:58:26;2.70;47.80
3136;DHT22;1578;47.658;9.922;2024-03-07T03:00:57;2.70;47.50
3136;DHT22;1578;47.658;9.922;2024-03-07T03:03:23;2.70;47.70
3136;DHT22;1578;47.658;9.922;2024-03-07T03:05:49;2.70;47.50
3136;DHT22;1578;47.658;9.922;2024-03-07T03:08:14;2.70;47.70
3136;DHT22;1578;47.658;9.922;2024-03-07T03:10:40;2.70;48.40
3136;DHT22;1578;47.658;9.922;2024-03-07T03:13:06;2.70;47.90
3136;DHT22;1578;47.658;9.922;2024-03-07T03:15:32;2.70;48.40
3136;DHT22;1578;47.658;9.922;2024-03-07T03:17:59;2.70;48.00
3136;DHT22;1578;47.658;9.922;2024-03-07T03:20:25;2.70;48.40
3136;DHT22;1578;47.658;9.922;2024-03-07T03:22:54;2.70;48.70
3136;DHT22;1578;47.658;9.922;2024-03-07T03:25:20;2.70;48.30
3136;DHT22;1578;47.658;9.922;2024-03-07T03:27:47;2.70;48.40
3136;DHT22;1578;47.658;9.922;2024-03-07T03:30:13;2.70;48.60
3136;DHT22;1578;47.658;9.922;2024-03-07T03:32:39;2.70;48.50
3136;DHT22;1578;47.658;9.922;2024-03-07T03:35:07;2.80;48.10
3136;DHT22;1578;47.658;9.922;2024-03-07T03:37:33;2.80;47.60
3136;DHT22;1578;47.658;9.922;2024-03-07T03:39:59;2.80;47.50
3136;DHT22;1578;47.658;9.922;2024-03-07T03:42:24;2.80;48.30
3136;DHT22;1578;47.658;9.922;2024-03-07T03:44:51;2.80;47.50
3136;DHT22;1578;47.658;9.922;2024-03-07T03:47:16;2.80;48.00
3136;DHT22;1578;47.658;9.922;2024-03-07T03:49:42;2.80;48.30
3136;DHT22;1578;47.658;9.922;2024-03-07T03:52:08;2.80;48.20
3136;DHT22;1578;47.658;9.922;2024-03-07T03:54:34;2.80;48.00
3136;DHT22;1578;47.658;9.922;2024-03-07T03:57:00;2.70;47.90
3136;DHT22;1578;47.658;9.922;2024-03-07T03:59:25;2.70;48.50
3136;DHT22;1578;47.658;9.922;2024-03-07T04:01:52;2.80;48.20
3136;DHT22;1578;47.658;9.922;2024-03-07T04:04:17;2.70;48.10
3136;DHT22;1578;47.658;9.922;2024-03-07T04:06:43;2.70;48.20
3136;DHT22;1578;47.658;9.922;2024-03-07T04:09:10;2.80;48.60
3136;DHT22;1578;47.658;9.922;2024-03-07T04:11:35;2.70;47.90
3136;DHT22;1578;47.658;9.922;2024-03-07T04:14:02;2.70;48.40
3136;DHT22;1578;47.658;9.922;2024-03-07T04:16:27;2.80;48.20
3136;DHT22;1578;47.658;9.922;2024-03-07T04:18:53;2.70;48.30
3136;DHT22;1578;47.658;9.922;2024-03-07T04:21:19;2.70;48.80
3136;DHT22;1578;47.658;9.922;2024-03-07T04:23:44;2.70;48.70
3136;DHT22;1578;47.658;9.922;2024-03-07T04:26:11;2.70;49.10
3136;DHT22;1578;47.658;9.922;2024-03-07T04:28:40;2.70;49.20
3136;DHT22;1578;47.658;9.922;2024-03-07T04:31:06;2.80;49.10
3136;DHT22;1578;47.658;9.922;2024-03-07T04:33:31;2.80;48.70
3136;DHT22;1578;47.658;9.922;2024-03-07T04:35:57;2.80;48.20
3136;DHT22;1578;47.658;9.922;2024-03-07T04:38:23;2.80;48.80
3136;DHT22;1578;47.658;9.922;2024-03-07T04:40:48;2.90;48.50
3136;DHT22;1578;47.658;9.922;2024-03-07T04:43:14;3.00;47.40
3136;DHT22;1578;47.658;9.922;2024-03-07T04:45:41;2.90;46.70
3136;DHT22;1578;47.658;9.922;2024-03-07T04:48:06;2.90;47.50
3136;DHT22;1578;47.658;9.922;2024-03-07T04:50:33;2.90;47.80
3136;DHT22;1578;47.658;9.922;2024-03-07T04:52:59;3.00;47.20
3136;DHT22;1578;47.658;9.922;2024-03-07T04:55:25;3.00;47.20
3136;DHT22;1578;47.658;9.922;2024-03-07T04:57:50;2.90;47.50
3136;DHT22;1578;47.658;9.922;2024-03-07T05:00:17;3.00;47.70
3136;DHT22;1578;47.658;9.922;2024-03-07T05:02:49;2.90;47.20
3136;DHT22;1578;47.658;9.922;2024-03-07T05:05:17;2.90;47.10
3136;DHT22;1578;47.658;9.922;2024-03-07T05:07:51;2.80;47.80
3136;DHT22;1578;47.658;9.922;2024-03-07T05:10:17;2.90;47.40
3136;DHT22;1578;47.658;9.922;2024-03-07T05:12:43;2.90;48.40
3136;DHT22;1578;47.658;9.922;2024-03-07T05:15:08;2.90;47.10
3136;DHT22;1578;47.658;9.922;2024-03-07T05:17:37;2.90;47.60
3136;DHT22;1578;47.658;9.922;2024-03-07T05:20:06;2.90;47.40
3136;DHT22;1578;47.658;9.922;2024-03-07T05:22:36;2.90;47.10
3136;DHT22;1578;47.658;9.922;2024-03-07T05:25:06;2.80;47.00
3136;DHT22;1578;47.658;9.922;2024-03-07T05:27:32;2.80;47.90
3136;DHT22;1578;47.658;9.922;2024-03-07T05:29:59;2.80;48.50
3136;DHT22;1578;47.658;9.922;2024-03-07T05:32:25;2.90;47.90
3136;DHT22;1578;47.658;9.922;2024-03-07T05:34:54;2.90;48.00
3136;DHT22;1578;47.658;9.922;2024-03-07T05:37:20;2.90;48.10
3136;DHT22;1578;47.658;9.922;2024-03-07T05:39:48;3.00;47.70
3136;DHT22;1578;47.658;9.922;2024-03-07T05:42:13;2.90;47.50
3136;DHT22;1578;47.658;9.922;2024-03-07T05:44:44;2.90;47.80
3136;DHT22;1578;47.658;9.922;2024-03-07T05:47:10;2.90;47.80
3136;DHT22;1578;47.658;9.922;2024-03-07T05:49:36;2.90;47.50
3136;DHT22;1578;47.658;9.922;2024-03-07T05:52:05;2.80;48.20
3136;DHT22;1578;47.658;9.922;2024-03-07T05:54:34;2.90;48.40
3136;DHT22;1578;47.658;9.922;2024-03-07T05:56:59;3.00;48.60
3136;DHT22;1578;47.658;9.922;2024-03-07T05:59:25;3.00;47.80
3136;DHT22;1578;47.658;9.922;2024-03-07T06:01:54;3.00;47.70
3136;DHT22;1578;47.658;9.922;2024-03-07T06:04:19;3.00;47.90
3136;DHT22;1578;47.658;9.922;2024-03-07T06:06:46;3.00;47.80
3136;DHT22;1578;47.658;9.922;2024-03-07T06:09:13;3.00;47.80
3136;DHT22;1578;47.658;9.922;2024-03-07T06:11:39;3.10;48.40
3136;DHT22;1578;47.658;9.922;2024-03-07T06:14:08;3.10;47.60
3136;DHT22;1578;47.658;9.922;2024-03-07T06:16:37;3.10;47.40
3136;DHT22;1578;47.658;9.922;2024-03-07T06:19:04;3.10;47.60
3136;DHT22;1578;47.658;9.922;2024-03-07T06:21:33;3.10;46.90
3136;DHT22;1578;47.658;9.922;2024-03-07T06:24:02;3.00;47.60
3136;DHT22;1578;47.658;9.922;2024-03-07T06:26:33;3.00;48.40
3136;DHT22;1578;47.658;9.922;2024-03-07T06:29:18;2.90;48.70
3136;DHT22;1578;47.658;9.922;2024-03-07T06:31:44;2.70;49.20
3136;DHT22;1578;47.658;9.922;2024-03-07T06:34:13;2.70;49.80
3136;DHT22;1578;47.658;9.922;2024-03-07T06:36:38;2.70;50.70
3136;DHT22;1578;47.658;9.922;2024-03-07T06:39:06;2.70;52.20
3136;DHT22;1578;47.658;9.922;2024-03-07T06:41:35;2.80;53.20
3136;DHT22;1578;47.658;9.922;2024-03-07T06:44:01;2.90;52.10
3136;DHT22;1578;47.658;9.922;2024-03-07T06:46:27;2.90;51.90
3136;DHT22;1578;47.658;9.922;2024-03-07T06:48:53;3.00;52.30
3136;DHT22;1578;47.658;9.922;2024-03-07T06:51:19;3.10;52.60
3136;DHT22;1578;47.658;9.922;2024-03-07T06:53:44;3.20;52.90
3136;DHT22;1578;47.658;9.922;2024-03-07T06:56:13;3.40;52.60
3136;DHT22;1578;47.658;9.922;2024-03-07T06:58:40;3.50;51.40
3136;DHT22;1578;47.658;9.922;2024-03-07T07:01:06;3.60;50.20
3136;DHT22;1578;47.658;9.922;2024-03-07T07:03:36;3.70;49.60
3136;DHT22;1578;47.658;9.922;2024-03-07T07:06:03;3.70;49.60
3136;DHT22;1578;47.658;9.922;2024-03-07T07:08:31;3.80;49.20
3136;DHT22;1578;47.658;9.922;2024-03-07T07:10:58;3.90;48.80
3136;DHT22;1578;47.658;9.922;2024-03-07T07:13:23;3.90;47.90
3136;DHT22;1578;47.658;9.922;2024-03-07T07:15:49;3.90;48.40
3136;DHT22;1578;47.658;9.922;2024-03-07T07:18:15;4.00;48.50
3136;DHT22;1578;47.658;9.922;2024-03-07T07:20:41;4.10;48.50
3136;DHT22;1578;47.658;9.922;2024-03-07T07:23:07;4.20;47.80
3136;DHT22;1578;47.658;9.922;2024-03-07T07:25:33;4.10;47.20
3136;DHT22;1578;47.658;9.922;2024-03-07T07:27:59;4.10;45.90
3136;DHT22;1578;47.658;9.922;2024-03-07T07:30:25;4.00;45.70
3136;DHT22;1578;47.658;9.922;2024-03-07T07:32:52;3.90;47.30
3136;DHT22;1578;47.658;9.922;2024-03-07T07:35:19;3.70;47.00
3136;DHT22;1578;47.658;9.922;2024-03-07T07:37:47;3.60;46.80
3136;DHT22;1578;47.658;9.922;2024-03-07T07:40:15;3.40;49.10
3136;DHT22;1578;47.658;9.922;2024-03-07T07:42:47;3.50;50.80
3136;DHT22;1578;47.658;9.922;2024-03-07T07:45:14;3.70;51.50
3136;DHT22;1578;47.658;9.922;2024-03-07T07:47:43;3.80;49.20
3136;DHT22;1578;47.658;9.922;2024-03-07T07:50:10;3.70;48.60
3136;DHT22;1578;47.658;9.922;2024-03-07T07:52:53;3.80;48.50
3136;DHT22;1578;47.658;9.922;2024-03-07T07:55:20;3.80;47.40
3136;DHT22;1578;47.658;9.922;2024-03-07T07:57:47;3.80;48.40
3136;DHT22;1578;47.658;9.922;2024-03-07T08:00:15;3.90;48.50
3136;DHT22;1578;47.658;9.922;2024-03-07T08:02:52;4.10;50.20
3136;DHT22;1578;47.658;9.922;2024-03-07T08:05:21;4.20;48.20
3136;DHT22;1578;47.658;9.922;2024-03-07T08:07:52;4.40;44.90
3136;DHT22;1578;47.658;9.922;2024-03-07T08:10:19;4.40;45.30
3136;DHT22;1578;47.658;9.922;2024-03-07T08:12:45;4.30;45.40
3136;DHT22;1578;47.658;9.922;2024-03-07T08:15:14;4.40;44.50
3136;DHT22;1578;47.658;9.922;2024-03-07T08:17:44;4.40;44.80
3136;DHT22;1578;47.658;9.922;2024-03-07T08:20:14;4.40;45.90
3136;DHT22;1578;47.658;9.922;2024-03-07T08:22:41;4.30;45.90
3136;DHT22;1578;47.658;9.922;2024-03-07T08:25:30;4.40;46.60
3136;DHT22;1578;47.658;9.922;2024-03-07T08:27:59;4.60;47.00
3136;DHT22;1578;47.658;9.922;2024-03-07T08:30:25;4.50;44.90
3136;DHT22;1578;47.658;9.922;2024-03-07T08:32:53;4.70;44.50
3136;DHT22;1578;47.658;9.922;2024-03-07T08:35:20;4.80;43.20
3136;DHT22;1578;47.658;9.922;2024-03-07T08:37:48;4.90;43.20
3136;DHT22;1578;47.658;9.922;2024-03-07T08:40:19;5.00;43.30
3136;DHT22;1578;47.658;9.922;2024-03-07T08:42:50;5.20;43.00
3136;DHT22;1578;47.658;9.922;2024-03-07T08:45:17;5.10;40.70
3136;DHT22;1578;47.658;9.922;2024-03-07T08:47:48;5.10;43.00
3136;DHT22;1578;47.658;9.922;2024-03-07T08:50:14;5.20;41.50
3136;DHT22;1578;47.658;9.922;2024-03-07T08:52:41;5.30;40.60
3136;DHT22;1578;47.658;9.922;2024-03-07T08:55:08;5.40;40.60
3136;DHT22;1578;47.658;9.922;2024-03-07T08:57:38;5.50;39.00
3136;DHT22;1578;47.658;9.922;2024-03-07T09:00:05;5.50;40.40
3136;DHT22;1578;47.658;9.922;2024-03-07T09:02:35;5.70;37.80
3136;DHT22;1578;47.658;9.922;2024-03-07T09:05:04;5.80;38.20
3136;DHT22;1578;47.658;9.922;2024-03-07T09:07:30;5.90;38.50
3136;DHT22;1578;47.658;9.922;2024-03-07T09:09:56;5.90;34.60
3136;DHT22;1578;47.658;9.922;2024-03-07T09:12:22;5.70;34.40
3136;DHT22;1578;47.658;9.922;2024-03-07T09:14:48;5.80;37.50
3136;DHT22;1578;47.658;9.922;2024-03-07T09:17:14;5.90;38.20
3136;DHT22;1578;47.658;9.922;2024-03-07T09:19:40;5.80;36.10
3136;DHT22;1578;47.658;9.922;2024-03-07T09:22:06;5.70;36.40
3136;DHT22;1578;47.658;9.922;2024-03-07T09:24:33;5.50;37.20
3136;DHT22;1578;47.658;9.922;2024-03-07T09:27:00;5.60;39.60
3136;DHT22;1578;47.658;9.922;2024-03-07T09:29:26;5.80;36.20
3136;DHT22;1578;47.658;9.922;2024-03-07T09:31:53;5.90;35.00
3136;DHT22;1578;47.658;9.922;2024-03-07T09:34:20;5.90;35.90
3136;DHT22;1578;47.658;9.922;2024-03-07T09:36:47;5.90;36.30
3136;DHT22;1578;47.658;9.922;2024-03-07T09:39:12;5.90;35.30
3136;DHT22;1578;47.658;9.922;2024-03-07T09:41:38;6.10;35.30
3136;DHT22;1578;47.658;9.922;2024-03-07T09:44:05;6.00;34.60
3136;DHT22;1578;47.658;9.922;2024-03-07T09:46:31;6.10;36.20
3136;DHT22;1578;47.658;9.922;2024-03-07T09:49:00;6.10;33.40
3136;DHT22;1578;47.658;9.922;2024-03-07T09:51:27;6.10;35.70
3136;DHT22;1578;47.658;9.922;2024-03-07T09:53:53;6.40;36.80
3136;DHT22;1578;47.658;9.922;2024-03-07T09:56:21;6.50;36.20
3136;DHT22;1578;47.658;9.922;2024-03-07T09:58:49;6.70;34.20
3136;DHT22;1578;47.658;9.922;2024-03-07T10:01:18;6.70;34.00
3136;DHT22;1578;47.658;9.922;2024-03-07T10:03:45;6.80;33.70
3136;DHT22;1578;47.658;9.922;2024-03-07T10:06:12;6.60;30.30
3136;DHT22;1578;47.658;9.922;2024-03-07T10:08:39;6.70;32.60
3136;DHT22;1578;47.658;9.922;2024-03-07T10:11:06;6.50;33.10
3136;DHT22;1578;47.658;9.922;2024-03-07T10:13:33;6.50;34.70
3136;DHT22;1578;47.658;9.922;2024-03-07T10:16:01;6.50;33.40
3136;DHT22;1578;47.658;9.922;2024-03-07T10:18:27;6.60;34.10
3136;DHT22;1578;47.658;9.922;2024-03-07T10:20:56;6.70;32.70
3136;DHT22;1578;47.658;9.922;2024-03-07T10:23:22;6.60;33.60
3136;DHT22;1578;47.658;9.922;2024-03-07T10:25:49;6.80;33.30
3136;DHT22;1578;47.658;9.922;2024-03-07T10:28:18;6.70;33.10
3136;DHT22;1578;47.658;9.922;2024-03-07T10:30:43;6.50;33.60
3136;DHT22;1578;47.658;9.922;2024-03-07T10:33:16;6.40;32.90
3136;DHT22;1578;47.658;9.922;2024-03-07T10:35:42;6.20;34.00
3136;DHT22;1578;47.658;9.922;2024-03-07T10:38:08;6.40;35.40
3136;DHT22;1578;47.658;9.922;2024-03-07T10:40:38;6.20;34.20
3136;DHT22;1578;47.658;9.922;2024-03-07T10:43:10;6.30;35.90
3136;DHT22;1578;47.658;9.922;2024-03-07T10:45:44;6.30;33.10
3136;DHT22;1578;47.658;9.922;2024-03-07T10:48:12;6.30;34.30
3136;DHT22;1578;47.658;9.922;2024-03-07T10:51:09;6.20;34.80
3136;DHT22;1578;47.658;9.922;2024-03-07T10:59:19;6.50;36.40
3136;DHT22;1578;47.658;9.922;2024-03-07T11:02:08;6.60;34.00
3136;DHT22;1578;47.658;9.922;2024-03-07T11:04:39;6.60;33.10
3136;DHT22;1578;47.658;9.922;2024-03-07T11:07:05;6.60;33.50
3136;DHT22;1578;47.658;9.922;2024-03-07T11:09:31;6.60;35.20
3136;DHT22;1578;47.658;9.922;2024-03-07T11:12:00;6.70;37.40
3136;DHT22;1578;47.658;9.922;2024-03-07T11:14:29;7.00;34.00
3136;DHT22;1578;47.658;9.922;2024-03-07T11:16:57;7.10;33.40
3136;DHT22;1578;47.658;9.922;2024-03-07T11:19:27;7.30;34.20
3136;DHT22;1578;47.658;9.922;2024-03-07T11:21:54;7.10;32.00
3136;DHT22;1578;47.658;9.922;2024-03-07T11:24:25;6.90;32.90
3136;DHT22;1578;47.658;9.922;2024-03-07T11:27:01;7.00;31.60
3136;DHT22;1578;47.658;9.922;2024-03-07T11:29:46;6.90;30.50
3136;DHT22;1578;47.658;9.922;2024-03-07T11:32:13;6.80;30.40
3136;DHT22;1578;47.658;9.922;2024-03-07T11:34:41;7.10;32.00
3136;DHT22;1578;47.658;9.922;2024-03-07T11:37:08;7.40;30.90
3136;DHT22;1578;47.658;9.922;2024-03-07T11:39:47;7.60;29.10
3136;DHT22;1578;47.658;9.922;2024-03-07T11:42:29;7.50;29.00
3136;DHT22;1578;47.658;9.922;2024-03-07T11:44:57;7.50;28.60
3136;DHT22;1578;47.658;9.922;2024-03-07T11:47:34;7.80;29.60
3136;DHT22;1578;47.658;9.922;2024-03-07T11:50:01;7.80;29.60
3136;DHT22;1578;47.658;9.922;2024-03-07T11:52:27;7.80;28.30
3136;DHT22;1578;47.658;9.922;2024-03-07T11:54:53;8.10;27.10
3136;DHT22;1578;47.658;9.922;2024-03-07T11:57:25;8.20;26.90
3136;DHT22;1578;47.658;9.922;2024-03-07T11:59:58;8.20;27.00
3136;DHT22;1578;47.658;9.922;2024-03-07T12:02:27;8.10;27.50
3136;DHT22;1578;47.658;9.922;2024-03-07T12:04:53;8.00;26.50
3136;DHT22;1578;47.658;9.922;2024-03-07T12:07:20;8.10;26.30
3136;DHT22;1578;47.658;9.922;2024-03-07T12:09:49;8.10;25.90
3136;DHT22;1578;47.658;9.922;2024-03-07T12:12:20;8.20;25.50
3136;DHT22;1578;47.658;9.922;2024-03-07T12:14:54;8.30;25.10
3136;DHT22;1578;47.658;9.922;2024-03-07T12:17:20;8.40;27.60
3136;DHT22;1578;47.658;9.922;2024-03-07T12:19:46;8.60;25.80
3136;DHT22;1578;47.658;9.922;2024-03-07T12:22:13;8.30;24.80
3136;DHT22;1578;47.658;9.922;2024-03-07T12:24:39;8.00;24.50
3136;DHT22;1578;47.658;9.922;2024-03-07T12:27:10;8.00;24.00
3136;DHT22;1578;47.658;9.922;2024-03-07T12:29:37;7.90;25.10
3136;DHT22;1578;47.658;9.922;2024-03-07T12:32:08;7.70;25.10
3136;DHT22;1578;47.658;9.922;2024-03-07T12:34:36;7.80;25.70
3136;DHT22;1578;47.658;9.922;2024-03-07T12:37:05;7.60;26.20
3136;DHT22;1578;47.658;9.922;2024-03-07T12:39:33;7.70;26.00
3136;DHT22;1578;47.658;9.922;2024-03-07T12:42:12;7.70;27.20
3136;DHT22;1578;47.658;9.922;2024-03-07T12:44:41;7.80;26.80
3136;DHT22;1578;47.658;9.922;2024-03-07T12:47:15;7.90;27.30
3136;DHT22;1578;47.658;9.922;2024-03-07T12:49:41;7.70;23.80
3136;DHT22;1578;47.658;9.922;2024-03-07T12:52:07;7.50;24.40
3136;DHT22;1578;47.658;9.922;2024-03-07T12:54:36;7.50;25.70
3136;DHT22;1578;47.658;9.922;2024-03-07T12:57:07;7.60;24.80
3136;DHT22;1578;47.658;9.922;2024-03-07T12:59:34;7.80;24.90
3136;DHT22;1578;47.658;9.922;2024-03-07T13:02:03;7.90;24.50
3136;DHT22;1578;47.658;9.922;2024-03-07T13:04:29;7.90;24.80
3136;DHT22;1578;47.658;9.922;2024-03-07T13:06:55;8.00;23.80
3136;DHT22;1578;47.658;9.922;2024-03-07T13:09:25;8.10;24.20
3136;DHT22;1578;47.658;9.922;2024-03-07T13:11:55;7.90;23.20
3136;DHT22;1578;47.658;9.922;2024-03-07T13:14:21;7.60;24.10
3136;DHT22;1578;47.658;9.922;2024-03-07T13:16:46;7.60;23.90
3136;DHT22;1578;47.658;9.922;2024-03-07T13:19:12;7.80;24.10
3136;DHT22;1578;47.658;9.922;2024-03-07T13:21:40;7.90;24.60
3136;DHT22;1578;47.658;9.922;2024-03-07T13:24:06;8.10;25.00
3136;DHT22;1578;47.658;9.922;2024-03-07T13:26:31;8.20;22.50
3136;DHT22;1578;47.658;9.922;2024-03-07T13:28:57;8.30;22.40
3136;DHT22;1578;47.658;9.922;2024-03-07T13:31:27;8.30;21.70
3136;DHT22;1578;47.658;9.922;2024-03-07T13:33:55;8.30;21.10
3136;DHT22;1578;47.658;9.922;2024-03-07T13:36:20;8.40;22.20
3136;DHT22;1578;47.658;9.922;2024-03-07T13:38:51;8.70;22.70
3136;DHT22;1578;47.658;9.922;2024-03-07T13:41:20;8.70;21.00
3136;DHT22;1578;47.658;9.922;2024-03-07T13:43:50;8.60;22.20
3136;DHT22;1578;47.658;9.922;2024-03-07T13:46:16;8.30;22.70
3136;DHT22;1578;47.658;9.922;2024-03-07T13:48:44;8.30;23.00
3136;DHT22;1578;47.658;9.922;2024-03-07T13:51:10;8.00;21.70
3136;DHT22;1578;47.658;9.922;2024-03-07T13:53:40;8.00;23.20
3136;DHT22;1578;47.658;9.922;2024-03-07T13:56:47;7.80;24.10
3136;DHT22;1578;47.658;9.922;2024-03-07T13:59:48;7.80;24.60
3136;DHT22;1578;47.658;9.922;2024-03-07T14:08:42;7.20;24.60
3136;DHT22;1578;47.658;9.922;2024-03-07T14:22:27;7.00;25.60
3136;DHT22;1578;47.658;9.922;2024-03-07T14:25:24;6.90;24.40
3136;DHT22;1578;47.658;9.922;2024-03-07T14:28:31;6.90;24.80
3136;DHT22;1578;47.658;9.922;2024-03-07T14:30:59;6.80;25.20
3136;DHT22;1578;47.658;9.922;2024-03-07T14:33:32;6.80;24.20
3136;DHT22;1578;47.658;9.922;2024-03-07T14:36:13;6.70;24.50
3136;DHT22;1578;47.658;9.922;2024-03-07T14:38:57;6.70;24.80
3136;DHT22;1578;47.658;9.922;2024-03-07T14:44:17;6.80;25.00
3136;DHT22;1578;47.658;9.922;2024-03-07T14:46:43;6.70;25.70
3136;DHT22;1578;47.658;9.922;2024-03-07T14:49:17;6.70;25.30
3136;DHT22;1578;47.658;9.922;2024-03-07T14:51:43;6.70;25.80
3136;DHT22;1578;47.658;9.922;2024-03-07T14:54:09;6.70;26.40
3136;DHT22;1578;47.658;9.922;2024-03-07T14:56:36;6.60;25.50
3136;DHT22;1578;47.658;9.922;2024-03-07T14:59:01;6.60;26.20
3136;DHT22;1578;47.658;9.922;2024-03-07T15:01:32;6.50;25.60
3136;DHT22;1578;47.658;9.922;2024-03-07T15:04:01;6.80;26.60
3136;DHT22;1578;47.658;9.922;2024-03-07T15:06:29;6.70;25.40
3136;DHT22;1578;47.658;9.922;2024-03-07T15:08:57;6.80;25.10
3136;DHT22;1578;47.658;9.922;2024-03-07T15:11:35;6.80;25.40
3136;DHT22;1578;47.658;9.922;2024-03-07T15:14:01;6.90;26.70
3136;DHT22;1578;47.658;9.922;2024-03-07T15:16:30;6.90;26.10
3136;DHT22;1578;47.658;9.922;2024-03-07T15:19:01;6.90;25.10
3136;DHT22;1578;47.658;9.922;2024-03-07T15:21:26;6.90;26.70
3136;DHT22;1578;47.658;9.922;2024-03-07T15:24:00;6.90;25.90
3136;DHT22;1578;47.658;9.922;2024-03-07T15:26:27;7.10;26.40
3136;DHT22;1578;47.658;9.922;2024-03-07T15:28:53;7.10;24.70
3136;DHT22;1578;47.658;9.922;2024-03-07T15:31:25;7.00;25.70
3136;DHT22;1578;47.658;9.922;2024-03-07T15:33:51;6.80;25.00
3136;DHT22;1578;47.658;9.922;2024-03-07T15:36:17;6.80;25.40
3136;DHT22;1578;47.658;9.922;2024-03-07T15:38:44;6.70;25.80
3136;DHT22;1578;47.658;9.922;2024-03-07T15:41:10;6.70;26.00
3136;DHT22;1578;47.658;9.922;2024-03-07T15:43:41;6.70;26.60
3136;DHT22;1578;47.658;9.922;2024-03-07T15:46:16;6.90;26.50
3136;DHT22;1578;47.658;9.922;2024-03-07T15:48:45;7.00;26.80
3136;DHT22;1578;47.658;9.922;2024-03-07T15:51:12;6.80;25.30
3136;DHT22;1578;47.658;9.922;2024-03-07T15:53:40;6.70;25.90
3136;DHT22;1578;47.658;9.922;2024-03-07T15:56:07;6.50;26.70
3136;DHT22;1578;47.658;9.922;2024-03-07T15:58:33;6.60;26.50
3136;DHT22;1578;47.658;9.922;2024-03-07T16:00:59;6.60;27.00
3136;DHT22;1578;47.658;9.922;2024-03-07T16:03:26;6.60;26.80
3136;DHT22;1578;47.658;9.922;2024-03-07T16:05:51;6.60;27.20
3136;DHT22;1578;47.658;9.922;2024-03-07T16:08:20;6.70;26.60
3136;DHT22;1578;47.658;9.922;2024-03-07T16:10:51;6.70;26.60
3136;DHT22;1578;47.658;9.922;2024-03-07T16:13:19;6.60;25.50
3136;DHT22;1578;47.658;9.922;2024-03-07T16:15:46;6.60;25.90
3136;DHT22;1578;47.658;9.922;2024-03-07T16:18:13;6.70;26.70
3136;DHT22;1578;47.658;9.922;2024-03-07T16:20:39;6.60;25.90
3136;DHT22;1578;47.658;9.922;2024-03-07T16:23:06;6.70;26.60
3136;DHT22;1578;47.658;9.922;2024-03-07T16:25:33;6.80;25.40
3136;DHT22;1578;47.658;9.922;2024-03-07T16:28:06;6.60;25.90
3136;DHT22;1578;47.658;9.922;2024-03-07T16:30:33;6.60;26.30
3136;DHT22;1578;47.658;9.922;2024-03-07T16:33:00;6.60;26.70
3136;DHT22;1578;47.658;9.922;2024-03-07T16:35:27;6.60;26.50
3136;DHT22;1578;47.658;9.922;2024-03-07T16:37:53;6.50;26.40
3136;DHT22;1578;47.658;9.922;2024-03-07T16:40:27;6.50;27.30
3136;DHT22;1578;47.658;9.922;2024-03-07T16:42:58;6.40;26.80
3136;DHT22;1578;47.658;9.922;2024-03-07T16:45:29;6.50;26.40
3136;DHT22;1578;47.658;9.922;2024-03-07T16:47:56;6.50;27.00